Pineville, MO (64856)

11:30 AM CST on February 11, 2016 (GMT -0600)
Brush Creek | | Change Station
CLOSE
Current Station
Personal Weather Station
Location: Noel, MO
Elevation: 1056 ft
Nearby Weather Stations

Elev 1056 ft 36.51 °N, 94.34 °W | Updated 21 seconds ago

Clear
Clear
45.9 °F
Feels Like 46 °F
N
2.5
Wind Variable Wind from ESE
Gusts 2.5 mph

Today
High -- | Low -- °F
--% Chance of Precip.
Yesterday
High -- | Low -- °F
Precip. -- in
Pressure 30.23 in
Visibility 10.0 miles
Clouds Clear
Windchill 46 °F
Dew Point 19 °F
Humidity 34%
Rainfall 0.00 in
Snow Depth Not available.
7:10 AM 5:53 PM
Waxing Crescent, 13% visible
METAR KGMJ 111715Z AUTO 02004KT 10SM CLR 07/M05 A3023 RMK AO2
Pressure 30.23 in
Visibility 10.0 miles
Clouds Clear
Windchill 46 °F
Dew Point 19 °F
Humidity 34%
Rainfall 0.00 in
Snow Depth Not available.
7:10 AM 5:53 PM
Waxing Crescent, 13% visible
METAR KGMJ 111715Z AUTO 02004KT 10SM CLR 07/M05 A3023 RMK AO2

10-Day Weather Forecast

Almanac

Astronomy

Feb. 11, 2016 Rise Set
Actual Time
Civil Twilight
Nautical Twilight
Astronomical Twilight
Moon
Length of Visible Light
Length of Day
Tomorrow will be .
, % of the Moon is Illuminated

Today's Extremes

State Highs State Lows

Community

WunderPhotos

Upload Photos

1,892,107 photos uploaded!

WunderBlog® & News

Nearby

Air Quality

  Air Quality AQ Index Pollutant
Not available.

Snow Depth

Station Depth Elevation

Earthquake Activity

City Distance Mag. Time & Date
Minimum magnitude displayed is 2.5.

Coastal Water Temperatures

Place Temperature

Stations

Nearby Weather Stations

Station Location Temp. Windchill Dew Point Humidity Wind Precip. Elev Updated Type
                   

Watches & Warnings

There are currently no watches in effect.